Elgin, Pennsylvania
Current Conditions -  °F | °C
As of 12:51 PM on Saturday 20 Dec 2014 (Local Time) from KERI Reporting Station
Overcast Overcast  
Wind Chill: 31°   Ceiling: 2200
Heat Index: 31°   Visibility: 10mi
Dew Point: 21°   Wind: 0mph
Humidity: 67%   Direction: NA
Pressure: 30.26"   Gusts: NA
Location:  41.9°N, 79.74°W
Report Text: KERI 201751Z 00000KT 10SM OVC022 M01/M06 A3026 RMK AO2 SLP257 T10061061 11006 21011 58011
Loading
Personal Weather Stations






























Interactive Weather Map New forecast layout! Learn more

10-Day Weather Forecast

Advertisements
Track Severe Weather on mobile